Time;durP1;ratioP1;P1;durP2;ratioP2;P2;SDS_P1;SDS_P2;PMS_P1;PMS_P2;Temp;Humidity;BMP_temperature;BMP_pressure;BME280_temperature;BME280_humidity;BME280_pressure;Samples;Min_cycle;Max_cycle;Signal;HPM_P1;HPM_P2
2022/07/02 00:00:23;;;;;;;8.33;6.15;;;;;;;17.61;88.78;99733.17;1674104;83;21050;-63
2022/07/02 00:02:55;;;;;;;11.00;6.10;;;;;;;17.60;88.66;99734.14;1706278;82;21101;-62
2022/07/02 00:05:23;;;;;;;9.45;6.35;;;;;;;17.62;88.81;99728.75;1697416;81;21059;-62
2022/07/02 00:07:52;;;;;;;12.30;6.90;;;;;;;17.63;88.82;99725.98;1708694;82;21118;-62
2022/07/02 00:10:23;;;;;;;8.55;5.87;;;;;;;17.66;89.01;99725.74;1706667;81;21699;-61
2022/07/02 00:12:51;;;;;;;11.00;5.85;;;;;;;17.68;89.01;99722.52;1698128;83;21065;-62
2022/07/02 00:15:20;;;;;;;9.45;6.30;;;;;;;17.61;89.17;99726.56;1655056;83;21139;-61
2022/07/02 00:17:50;;;;;;;7.90;5.72;;;;;;;17.60;89.06;99726.22;1708836;83;21071;-62
2022/07/02 00:20:18;;;;;;;8.63;6.17;;;;;;;17.59;89.15;99721.91;1704932;82;21595;-63
2022/07/02 00:22:48;;;;;;;11.03;6.42;;;;;;;17.58;89.24;99722.01;1683029;82;21527;-62
2022/07/02 00:25:16;;;;;;;9.80;6.58;;;;;;;17.60;89.34;99728.86;1697965;82;20962;-62
2022/07/02 00:27:43;;;;;;;7.80;5.83;;;;;;;17.59;89.34;99729.83;1698143;82;21582;-62
2022/07/02 00:30:16;;;;;;;7.50;5.70;;;;;;;17.56;89.37;99727.42;1700216;82;21043;-62
2022/07/02 00:32:50;;;;;;;7.20;5.62;;;;;;;17.51;89.45;99729.56;1698186;83;21064;-62
2022/07/02 00:35:19;;;;;;;8.80;5.97;;;;;;;17.50;89.59;99723.91;1703309;83;21120;-62
2022/07/02 00:37:49;;;;;;;10.20;6.22;;;;;;;17.50;89.72;99722.58;1675982;83;21068;-62
2022/07/02 00:40:38;;;;;;;10.35;5.85;;;;;;;17.49;89.72;99722.72;1699269;83;21100;-62
2022/07/02 00:43:07;;;;;;;8.75;5.53;;;;;;;17.49;89.85;99720.91;1683723;83;21045;-62
2022/07/02 00:45:55;;;;;;;6.33;5.55;;;;;;;17.44;89.91;99709.38;1701027;83;21514;-63
2022/07/02 00:48:24;;;;;;;8.08;5.75;;;;;;;17.38;89.81;99706.38;1747830;81;21149;-62
2022/07/02 00:50:54;;;;;;;7.15;5.12;;;;;;;17.35;90.06;99717.16;1739117;81;21014;-62
2022/07/02 00:53:22;;;;;;;8.28;6.12;;;;;;;17.38;90.07;99718.25;1731767;81;21028;-63
2022/07/02 00:55:58;;;;;;;12.03;5.95;;;;;;;17.46;89.82;99718.52;1718620;82;21551;-62
2022/07/02 00:58:30;;;;;;;9.35;6.25;;;;;;;17.48;89.83;99720.56;1737347;81;21063;-63
2022/07/02 01:00:59;;;;;;;10.80;6.60;;;;;;;17.41;90.08;99721.97;1715363;81;22142;-62
2022/07/02 01:03:29;;;;;;;7.47;5.90;;;;;;;17.40;90.14;99721.63;1728120;82;20995;-63
2022/07/02 01:05:58;;;;;;;12.47;6.00;;;;;;;17.41;90.26;99728.09;1723191;82;21023;-63
2022/07/02 01:11:33;;;;;;;7.65;5.33;;;;;;;17.50;90.10;99726.55;1751205;79;21084;-62
2022/07/02 01:14:03;;;;;;;12.45;5.37;;;;;;;17.51;90.01;99730.89;1689832;83;21171;-62
2022/07/02 01:16:32;;;;;;;8.30;5.58;;;;;;;17.52;90.20;99731.23;1692940;83;21609;-62
2022/07/02 01:19:05;;;;;;;7.28;5.05;;;;;;;17.56;90.25;99743.27;1692967;84;21108;-63
2022/07/02 01:21:34;;;;;;;7.20;5.67;;;;;;;17.59;90.16;99743.03;1684087;83;21028;-63
2022/07/02 01:24:05;;;;;;;8.10;5.60;;;;;;;17.59;90.25;99746.98;1660991;84;21015;-63
2022/07/02 01:26:35;;;;;;;10.88;5.70;;;;;;;17.58;90.20;99741.33;1687192;84;20961;-63
2022/07/02 01:29:04;;;;;;;10.30;5.42;;;;;;;17.61;90.24;99743.73;1686673;83;21159;-62
2022/07/02 01:31:33;;;;;;;8.85;5.42;;;;;;;17.59;90.43;99743.03;1694278;84;21652;-62
2022/07/02 01:34:04;;;;;;;7.45;5.28;;;;;;;17.64;90.35;99743.52;1710495;81;21001;-62
2022/07/02 01:36:51;;;;;;;9.85;6.03;;;;;;;17.62;90.52;99733.55;1730150;81;21018;-63
2022/07/02 01:39:27;;;;;;;12.07;6.20;;;;;;;17.63;90.66;99731.26;1740725;81;21611;-63
2022/07/02 01:41:56;;;;;;;12.80;5.95;;;;;;;17.60;90.59;99730.17;1745020;81;21057;-62
2022/07/02 01:44:26;;;;;;;7.70;5.90;;;;;;;17.59;90.69;99731.15;1743755;81;21506;-63
2022/07/02 01:46:55;;;;;;;10.55;6.87;;;;;;;17.56;90.68;99737.98;1756699;81;20981;-63
2022/07/02 01:49:45;;;;;;;9.90;6.10;;;;;;;17.52;90.83;99749.72;1737044;81;21045;-63
2022/07/02 01:55:06;;;;;;;10.13;6.70;;;;;;;17.47;91.16;99743.94;1683071;83;21020;-61
2022/07/02 01:57:36;;;;;;;12.80;6.53;;;;;;;17.48;91.14;99745.64;1660873;84;21568;-62
2022/07/02 02:00:09;;;;;;;14.55;7.12;;;;;;;17.47;91.08;99743.94;1698138;83;21089;-62
2022/07/02 02:02:36;;;;;;;9.90;6.83;;;;;;;17.46;91.29;99746.23;1680186;84;21742;-62
2022/07/02 02:05:05;;;;;;;10.13;7.15;;;;;;;17.45;91.46;99759.08;1705144;83;21100;-63
2022/07/02 02:07:33;;;;;;;10.03;6.62;;;;;;;17.48;91.50;99761.48;1705675;83;20964;-63
2022/07/02 02:10:01;;;;;;;10.35;6.90;;;;;;;17.50;91.64;99756.90;1706377;83;22422;-63
2022/07/02 02:12:29;;;;;;;9.35;6.92;;;;;;;17.54;91.64;99756.22;1682530;82;21086;-63
2022/07/02 02:14:58;;;;;;;13.70;8.30;;;;;;;17.54;91.68;99762.33;1707519;82;21103;-64
2022/07/02 02:17:29;;;;;;;12.50;7.55;;;;;;;17.54;91.71;99763.65;1706138;82;21929;-64
2022/07/02 02:19:57;;;;;;;9.65;6.87;;;;;;;17.58;91.78;99766.89;1705136;82;21039;-64
2022/07/02 02:25:11;;;;;;;11.25;7.55;;;;;;;17.65;91.83;99758.39;1630285;84;21122;-62
2022/07/02 02:27:41;;;;;;;11.45;7.97;;;;;;;17.64;91.76;99767.28;1597456;86;21108;-62
2022/07/02 02:30:13;;;;;;;11.20;7.53;;;;;;;17.72;91.81;99776.41;1624063;86;21158;-63
2022/07/02 02:33:02;;;;;;;14.23;8.05;;;;;;;17.71;91.94;99780.02;1604225;87;20992;-64
2022/07/02 02:35:31;;;;;;;12.00;7.22;;;;;;;17.71;91.85;99791.90;1764326;79;21064;-63
2022/07/02 02:37:59;;;;;;;12.73;7.10;;;;;;;17.77;91.95;99803.31;1739215;81;21013;-63
2022/07/02 02:40:30;;;;;;;9.08;6.60;;;;;;;17.80;92.06;99809.23;1738581;79;21031;-63
2022/07/02 02:43:01;;;;;;;10.60;6.40;;;;;;;17.82;92.01;99810.45;1767491;79;21552;-63
2022/07/02 02:45:32;;;;;;;4.60;3.92;;;;;;;17.81;92.03;99812.70;1764470;79;21031;-63
2022/07/02 02:48:01;;;;;;;6.50;2.22;;;;;;;17.77;92.01;99816.52;1760322;79;20929;-63
2022/07/02 02:50:30;;;;;;;5.35;1.05;;;;;;;17.70;91.86;99823.20;1764049;81;21072;-63
2022/07/02 02:53:00;;;;;;;4.20;1.15;;;;;;;17.58;91.80;99821.84;1764050;79;21055;-63
2022/07/02 02:55:29;;;;;;;1.35;0.70;;;;;;;17.44;91.98;99823.36;1760784;79;23099;-63
2022/07/02 02:58:16;;;;;;;2.17;0.80;;;;;;;17.35;92.32;99824.05;1768697;79;21067;-63
2022/07/02 03:00:46;;;;;;;2.92;0.72;;;;;;;17.29;92.20;99840.34;1711228;82;20950;-63
2022/07/02 03:03:14;;;;;;;3.40;0.90;;;;;;;17.21;92.33;99839.09;1661229;85;21631;-63
2022/07/02 03:05:45;;;;;;;2.15;0.70;;;;;;;17.21;92.26;99841.72;1733340;81;21019;-64
2022/07/02 03:08:14;;;;;;;0.55;0.50;;;;;;;17.17;92.23;99836.32;1732907;81;21572;-64
2022/07/02 03:10:43;;;;;;;0.70;0.40;;;;;;;17.10;92.40;99841.66;1731306;81;21047;-63
2022/07/02 03:13:13;;;;;;;1.47;0.47;;;;;;;17.02;92.32;99845.81;1736195;81;21584;-63
2022/07/02 03:15:41;;;;;;;0.40;0.25;;;;;;;16.93;92.46;99843.36;1736066;81;21059;-64
2022/07/02 03:18:12;;;;;;;0.65;0.30;;;;;;;16.85;92.43;99845.22;1736493;80;21074;-61
2022/07/02 03:20:42;;;;;;;3.20;0.20;;;;;;;16.80;92.62;99838.59;1735868;82;21136;-62
2022/07/02 03:23:09;;;;;;;2.02;0.37;;;;;;;16.73;92.78;99844.27;1742436;80;21998;-62
2022/07/02 03:25:37;;;;;;;2.00;0.20;;;;;;;16.70;92.93;99846.30;1738149;80;21040;-63
2022/07/02 03:28:07;;;;;;;0.65;0.20;;;;;;;16.66;92.92;99848.28;1718071;81;21009;-63
2022/07/02 03:30:54;;;;;;;0.62;0.20;;;;;;;16.59;92.99;99857.59;1704497;82;21401;-63
2022/07/02 03:33:21;;;;;;;;;;;;;;;16.53;93.29;99868.56;1711008;81;21160;-65
2022/07/02 03:36:11;;;;;;;0.60;0.20;;;;;;;16.42;93.19;99868.47;1681078;83;20245;-62
2022/07/02 03:38:39;;;;;;;0.62;0.15;;;;;;;16.26;93.87;99866.88;1643685;86;21002;-63
2022/07/02 03:41:07;;;;;;;0.10;0.10;;;;;;;16.10;94.62;99867.55;1694588;84;21100;-62
2022/07/02 03:43:36;;;;;;;0.33;0.30;;;;;;;15.99;93.90;99875.33;1684014;82;21620;-62
2022/07/02 03:46:03;;;;;;;0.20;0.10;;;;;;;15.91;94.42;99876.31;1689079;82;22044;-62
2022/07/02 03:48:39;;;;;;;0.40;0.10;;;;;;;15.80;94.74;99880.52;1704606;82;21171;-63
2022/07/02 03:51:31;;;;;;;0.20;0.10;;;;;;;15.73;94.55;99882.34;1689111;82;21031;-61
2022/07/02 03:53:58;;;;;;;0.30;0.20;;;;;;;15.66;94.90;99878.77;1733818;81;21059;-62
2022/07/02 03:56:26;;;;;;;1.70;0.30;;;;;;;15.62;94.67;99886.95;1716721;81;21051;-62
2022/07/02 03:58:56;;;;;;;2.12;0.10;;;;;;;15.59;95.30;99901.63;1712177;81;21751;-63
2022/07/02 04:01:24;;;;;;;1.35;0.75;;;;;;;15.54;94.68;99907.66;1711723;82;21033;-62
2022/07/02 04:03:52;;;;;;;0.40;0.20;;;;;;;15.59;94.34;99926.64;1692585;81;21214;-63
2022/07/02 04:06:21;;;;;;;0.10;0.10;;;;;;;15.59;94.11;99927.48;1714528;81;21075;-62
2022/07/02 04:08:48;;;;;;;;;;;;;;;15.54;93.85;99936.61;1721050;81;20995;-63
2022/07/02 04:11:18;;;;;;;0.88;0.20;;;;;;;15.47;94.20;99937.97;1716992;81;21983;-62
2022/07/02 04:13:45;;;;;;;0.10;0.10;;;;;;;15.42;94.11;99946.98;1715256;81;20953;-63
2022/07/02 04:16:13;;;;;;;0.37;0.17;;;;;;;15.37;94.02;99951.69;1707568;81;24427;-62
2022/07/02 04:18:39;;;;;;;0.85;0.20;;;;;;;15.28;94.23;99944.38;1714935;81;21538;-62
2022/07/02 04:21:07;;;;;;;2.37;0.40;;;;;;;15.15;94.09;99940.38;1714517;81;21019;-62
2022/07/02 04:23:34;;;;;;;0.60;0.30;;;;;;;15.06;94.10;99934.36;1717543;81;21045;-62
2022/07/02 04:26:01;;;;;;;0.53;0.30;;;;;;;15.00;94.21;99926.86;1690577;82;21528;-62
2022/07/02 04:28:28;;;;;;;0.57;0.30;;;;;;;14.93;95.02;99934.30;1710999;81;21086;-64
2022/07/02 04:31:18;;;;;;;0.88;0.28;;;;;;;14.91;94.51;99946.69;1708293;82;21055;-60
2022/07/02 04:33:50;;;;;;;0.70;0.20;;;;;;;14.88;94.54;99956.08;1725506;81;21212;-62
2022/07/02 04:39:06;;;;;;;1.47;0.50;;;;;;;14.75;94.66;99972.22;1729779;81;21954;-62
2022/07/02 04:41:34;;;;;;;1.82;0.40;;;;;;;14.66;94.65;99970.98;1717078;81;21075;-62
2022/07/02 04:44:01;;;;;;;2.55;0.80;;;;;;;14.65;94.65;99976.36;1729768;81;21048;-62
2022/07/02 04:46:27;;;;;;;0.40;0.30;;;;;;;14.59;94.47;99981.95;1733993;81;21099;-62
2022/07/02 04:48:54;;;;;;;1.45;0.60;;;;;;;14.59;94.71;99984.58;1742466;81;21017;-62
2022/07/02 04:51:21;;;;;;;1.35;0.60;;;;;;;14.57;94.78;99993.05;1734239;81;21024;-61
2022/07/02 04:53:50;;;;;;;5.72;0.70;;;;;;;14.52;95.16;99990.20;1734979;81;22071;-62
2022/07/02 04:56:17;;;;;;;2.77;0.70;;;;;;;14.46;95.62;99987.08;1735926;81;21018;-62
2022/07/02 04:58:44;;;;;;;1.67;0.65;;;;;;;14.39;96.63;99989.20;1741051;81;21028;-62
2022/07/02 05:01:10;;;;;;;1.72;0.53;;;;;;;14.41;95.68;99982.08;1735356;81;21946;-62
2022/07/02 05:03:37;;;;;;;2.33;0.80;;;;;;;14.44;96.11;99974.02;1734293;81;21005;-62
2022/07/02 05:06:04;;;;;;;2.47;0.82;;;;;;;14.50;96.30;99984.16;1736444;81;21017;-62
2022/07/02 05:08:31;;;;;;;3.05;0.57;;;;;;;14.57;95.64;99996.98;1736278;81;21000;-62
2022/07/02 05:10:58;;;;;;;2.42;1.12;;;;;;;14.58;95.38;99999.98;1729386;81;21586;-62
2022/07/02 05:13:25;;;;;;;2.35;1.10;;;;;;;14.58;95.16;100004.77;1734918;81;22082;-62
2022/07/02 05:15:52;;;;;;;2.00;0.82;;;;;;;14.55;95.36;100012.83;1727493;81;21029;-62
2022/07/02 05:18:19;;;;;;;3.75;0.80;;;;;;;14.48;95.95;100008.83;1730855;81;21067;-62
2022/07/02 05:20:47;;;;;;;2.67;0.85;;;;;;;14.46;95.67;99989.23;1730881;81;21743;-62
2022/07/02 05:23:14;;;;;;;2.98;1.10;;;;;;;14.49;95.71;99989.05;1726852;81;20946;-62
2022/07/02 05:25:41;;;;;;;2.02;1.00;;;;;;;14.54;96.37;99994.07;1729882;81;21426;-62
2022/07/02 05:28:07;;;;;;;1.95;0.75;;;;;;;14.55;96.50;99997.91;1736131;79;21167;-62
2022/07/02 05:30:34;;;;;;;2.85;0.85;;;;;;;14.55;96.26;100005.78;1732758;81;21041;-62
2022/07/02 05:33:01;;;;;;;1.45;0.75;;;;;;;14.51;96.50;100006.89;1733663;81;21036;-62
2022/07/02 05:35:28;;;;;;;3.27;1.02;;;;;;;14.50;95.85;99999.92;1734173;81;21025;-62
2022/07/02 05:37:55;;;;;;;4.12;0.88;;;;;;;14.50;96.59;100006.96;1726304;81;21091;-62
2022/07/02 05:40:21;;;;;;;1.32;0.70;;;;;;;14.42;96.92;100000.84;1737861;80;21092;-62
2022/07/02 05:42:48;;;;;;;2.92;1.10;;;;;;;14.38;96.41;100003.28;1734533;81;21182;-62
2022/07/02 05:45:15;;;;;;;2.53;0.93;;;;;;;14.36;97.40;100006.45;1733613;81;21009;-62
2022/07/02 05:47:42;;;;;;;4.00;1.10;;;;;;;14.37;96.66;100029.18;1733964;81;21597;-62
2022/07/02 05:50:09;;;;;;;;;;;;;;;14.46;96.56;100053.59;1733544;81;21681;-63
2022/07/02 05:52:36;;;;;;;;;;;;;;;14.58;96.23;100077.02;1734784;81;20167;-62
2022/07/02 05:55:03;;;;;;;1.20;0.83;;;;;;;14.66;96.21;100081.37;1740658;81;20471;-62
2022/07/02 05:57:30;;;;;;;3.02;0.98;;;;;;;14.71;95.76;100058.77;1737948;81;21815;-62
2022/07/02 05:59:57;;;;;;;2.05;1.12;;;;;;;14.70;95.50;100046.55;1742962;81;21759;-62
2022/07/02 06:02:24;;;;;;;3.90;1.07;;;;;;;14.62;95.64;100048.33;1740828;81;21057;-62
2022/07/02 06:04:50;;;;;;;3.23;0.93;;;;;;;14.64;95.73;100050.85;1739945;81;21201;-62
2022/07/02 06:10:03;;;;;;;4.05;0.90;;;;;;;14.73;95.53;100037.16;1735313;81;21056;-62
2022/07/02 06:12:30;;;;;;;2.72;1.22;;;;;;;14.75;95.42;100024.78;1736633;81;21027;-62
2022/07/02 06:14:56;;;;;;;1.17;0.62;;;;;;;14.77;95.57;100036.90;1742668;81;21064;-61
2022/07/02 06:17:25;;;;;;;0.85;0.57;;;;;;;14.83;95.53;100059.34;1745361;81;21059;-62
2022/07/02 06:19:52;;;;;;;0.88;0.40;;;;;;;14.88;95.50;100069.59;1746384;81;21013;-63
2022/07/02 06:22:19;;;;;;;2.70;0.70;;;;;;;14.89;95.30;100090.52;1737341;81;21128;-63
2022/07/02 06:24:46;;;;;;;2.33;0.70;;;;;;;14.87;95.10;100091.11;1732884;81;21571;-64
2022/07/02 06:27:14;;;;;;;1.57;0.75;;;;;;;14.85;95.08;100102.17;1734263;81;21555;-63
2022/07/02 06:29:41;;;;;;;2.08;0.70;;;;;;;14.86;95.27;100103.85;1731707;81;21159;-63
2022/07/02 06:32:09;;;;;;;1.60;0.65;;;;;;;14.86;95.02;100106.95;1731373;81;21000;-63
2022/07/02 06:34:35;;;;;;;1.80;1.17;;;;;;;14.89;95.03;100111.55;1732543;81;21767;-63
2022/07/02 06:37:03;;;;;;;2.83;0.88;;;;;;;14.96;95.18;100112.90;1733727;81;21081;-63
2022/07/02 06:39:29;;;;;;;;;;;;;;;14.96;94.68;100120.79;1715990;81;21112;-62
2022/07/02 06:44:42;;;;;;;2.40;0.90;;;;;;;14.85;94.99;100136.34;1617867;86;21509;-62
2022/07/02 06:47:09;;;;;;;2.42;0.93;;;;;;;14.89;94.95;100144.42;1616180;87;21722;-62
2022/07/02 06:49:36;;;;;;;2.95;0.93;;;;;;;14.85;94.97;100147.34;1625451;87;21530;-62
2022/07/02 06:52:03;;;;;;;3.35;0.93;;;;;;;14.87;95.11;100144.12;1616999;87;21044;-62
2022/07/02 06:54:31;;;;;;;;;;;;;;;14.89;95.20;100148.36;1636846;86;20978;-63
2022/07/02 06:56:57;;;;;;;2.35;1.12;;;;;;;14.91;94.95;100143.87;1631566;86;20489;-61
2022/07/02 06:59:24;;;;;;;2.77;1.70;;;;;;;14.87;94.84;100158.14;1628531;86;21037;-62
2022/07/02 07:01:51;;;;;;;3.40;1.45;;;;;;;14.81;94.89;100158.48;1630035;86;21176;-62
2022/07/02 07:04:17;;;;;;;3.07;1.33;;;;;;;14.79;94.90;100157.73;1589295;89;21462;-62
2022/07/02 07:06:49;;;;;;;2.08;1.30;;;;;;;14.78;95.08;100161.28;1610880;87;22013;-63
2022/07/02 07:09:13;;;;;;;4.10;1.10;;;;;;;14.78;95.20;100170.01;1606873;87;21164;-63
2022/07/02 07:11:39;;;;;;;2.77;1.10;;;;;;;14.81;95.26;100176.88;1611681;87;21192;-63
2022/07/02 07:14:06;;;;;;;2.65;1.15;;;;;;;14.89;95.60;100172.02;1610613;87;21289;-62
2022/07/02 07:16:33;;;;;;;2.58;0.78;;;;;;;14.94;95.36;100181.81;1651543;84;22205;-63
2022/07/02 07:19:01;;;;;;;1.62;0.80;;;;;;;14.97;95.36;100169.80;1674987;84;21569;-65
2022/07/02 07:21:28;;;;;;;3.33;0.95;;;;;;;15.00;95.52;100170.93;1711427;82;21570;-64
2022/07/02 07:23:55;;;;;;;1.90;1.02;;;;;;;14.96;95.22;100160.23;1718119;82;21543;-63
2022/07/02 07:26:22;;;;;;;1.70;1.10;;;;;;;15.00;95.42;100155.16;1719323;82;21084;-63
2022/07/02 07:28:48;;;;;;;2.83;0.80;;;;;;;15.01;95.41;100157.31;1717561;82;21255;-63
2022/07/02 07:31:21;;;;;;;2.77;1.02;;;;;;;15.04;95.51;100168.12;1708981;82;21065;-64
2022/07/02 07:33:50;;;;;;;3.67;1.15;;;;;;;15.07;95.33;100181.09;1724129;82;21096;-63
2022/07/02 07:36:19;;;;;;;1.57;0.98;;;;;;;15.12;95.58;100178.56;1721165;82;21610;-63
2022/07/02 07:41:42;;;;;;;2.12;0.88;;;;;;;15.26;95.45;100193.53;1775854;79;21037;-63
2022/07/02 07:44:09;;;;;;;;;;;;;;;15.36;95.30;100197.33;1778942;80;20963;-63
2022/07/02 07:46:35;;;;;;;2.90;1.40;;;;;;;15.43;95.12;100202.61;1773867;80;20135;-63
2022/07/02 07:49:02;;;;;;;3.40;1.25;;;;;;;15.40;95.10;100208.06;1772913;80;21339;-62
2022/07/02 07:51:29;;;;;;;5.30;1.77;;;;;;;15.40;95.23;100206.75;1741881;81;21082;-63
2022/07/02 07:54:03;;;;;;;3.60;1.25;;;;;;;15.36;94.94;100205.69;1783962;80;21291;-63
2022/07/02 07:56:30;;;;;;;4.72;1.57;;;;;;;15.25;94.91;100202.38;1783830;80;22181;-63
2022/07/02 07:58:57;;;;;;;4.10;1.50;;;;;;;15.29;95.49;100203.91;1741351;81;21061;-62
2022/07/02 08:01:26;;;;;;;3.30;1.40;;;;;;;15.50;96.07;100214.08;1783327;80;21936;-62
2022/07/02 08:03:52;;;;;;;2.65;1.27;;;;;;;15.86;96.55;100223.73;1776879;80;21116;-63
2022/07/02 08:06:19;;;;;;;3.52;1.07;;;;;;;16.15;96.04;100236.87;1778478;80;21119;-62
2022/07/02 08:08:46;;;;;;;4.55;1.35;;;;;;;16.25;95.04;100234.06;1772601;80;21485;-62
2022/07/02 08:11:13;;;;;;;4.60;1.80;;;;;;;16.31;94.15;100232.34;1771258;80;21062;-63
2022/07/02 08:13:40;;;;;;;4.62;1.42;;;;;;;16.33;94.08;100244.97;1770173;80;21107;-63
2022/07/02 08:17:29;;;;;;;5.25;1.75;;;;;;;16.41;93.80;100243.62;1833228;77;22165;-62
2022/07/02 08:19:57;;;;;;;3.20;1.07;;;;;;;16.46;94.40;100257.36;1791192;79;21015;-63
2022/07/02 08:22:24;;;;;;;3.72;1.30;;;;;;;16.51;93.80;100256.12;1780398;78;21099;-63
2022/07/02 08:24:51;;;;;;;7.42;1.52;;;;;;;16.72;94.71;100263.16;1771505;80;20965;-62
2022/07/02 08:27:18;;;;;;;4.75;1.80;;;;;;;16.85;94.32;100262.38;1775130;80;21068;-62
2022/07/02 08:29:45;;;;;;;6.22;1.15;;;;;;;17.10;94.28;100270.86;1789778;78;20985;-63
2022/07/02 08:32:12;;;;;;;4.95;1.20;;;;;;;17.23;93.78;100277.87;1789901;79;21001;-64
2022/07/02 08:34:42;;;;;;;3.47;1.20;;;;;;;17.33;93.23;100286.01;1784165;78;21499;-63
2022/07/02 08:37:09;;;;;;;;;;;;;;;17.55;93.22;100282.78;1784540;78;21120;-64
2022/07/02 08:39:36;;;;;;;3.87;1.15;;;;;;;17.82;92.61;100284.07;1788849;78;20196;-62
2022/07/02 08:42:05;;;;;;;3.45;0.98;;;;;;;18.35;94.31;100285.25;1768093;80;20997;-63
2022/07/02 08:44:33;;;;;;;3.37;1.37;;;;;;;18.93;92.06;100285.07;1765486;80;20955;-63
2022/07/02 08:47:04;;;;;;;4.20;1.12;;;;;;;19.09;89.46;100290.55;1743684;80;21941;-64
2022/07/02 08:49:32;;;;;;;4.10;1.07;;;;;;;18.92;88.49;100284.69;1767402;80;20919;-64
2022/07/02 08:52:07;;;;;;;3.58;1.12;;;;;;;18.83;89.88;100285.36;1768589;80;21093;-64
2022/07/02 08:54:37;;;;;;;4.72;1.07;;;;;;;19.04;86.12;100283.42;1770233;80;20990;-64
2022/07/02 08:57:05;;;;;;;2.58;1.22;;;;;;;18.91;86.28;100279.52;1757708;80;21622;-63
2022/07/02 08:59:32;;;;;;;3.33;1.37;;;;;;;19.06;84.64;100277.54;1757355;80;21955;-62
2022/07/02 09:02:01;;;;;;;2.55;1.42;;;;;;;19.20;85.99;100279.52;1763616;80;21524;-62
2022/07/02 09:04:30;;;;;;;2.42;0.78;;;;;;;19.58;86.82;100280.27;1767666;80;21005;-63
2022/07/02 09:06:57;;;;;;;4.12;1.50;;;;;;;19.89;86.01;100288.91;1761641;80;21637;-64
2022/07/02 09:09:29;;;;;;;2.70;1.17;;;;;;;20.05;87.12;100287.70;1755721;80;22494;-64
2022/07/02 09:11:57;;;;;;;6.03;1.40;;;;;;;19.98;83.94;100295.78;1760641;80;22439;-64
2022/07/02 09:14:24;;;;;;;3.95;1.02;;;;;;;19.93;84.84;100296.61;1768158;78;21551;-64
2022/07/02 09:16:51;;;;;;;4.75;1.30;;;;;;;19.67;80.55;100296.81;1762700;80;21041;-63
2022/07/02 09:19:18;;;;;;;6.20;1.45;;;;;;;19.58;83.45;100292.19;1755276;80;21611;-63
2022/07/02 09:21:51;;;;;;;3.33;1.02;;;;;;;19.78;83.72;100294.19;1765013;80;26997;-62
2022/07/02 09:24:42;;;;;;;3.02;0.60;;;;;;;19.90;83.94;100291.91;1764884;80;21078;-62
2022/07/02 09:27:15;;;;;;;3.08;0.75;;;;;;;20.07;82.98;100295.06;1769993;80;20974;-64
2022/07/02 09:29:55;;;;;;;3.95;0.90;;;;;;;20.17;80.29;100300.02;1775684;80;21047;-63
2022/07/02 09:32:22;;;;;;;3.50;0.98;;;;;;;19.76;77.73;100289.47;1766755;80;21175;-63
2022/07/02 09:34:52;;;;;;;2.60;0.72;;;;;;;19.89;79.84;100290.23;1762079;80;20977;-63
2022/07/02 09:37:26;;;;;;;1.20;0.57;;;;;;;19.83;75.70;100297.33;1770647;80;21115;-62
2022/07/02 09:39:57;;;;;;;5.08;0.70;;;;;;;20.03;80.56;100281.70;1768493;80;21041;-63
2022/07/02 09:42:31;;;;;;;3.72;0.85;;;;;;;20.43;80.75;100291.33;1767763;80;21060;-62
2022/07/02 09:45:00;;;;;;;1.87;0.70;;;;;;;20.75;80.51;100290.12;1766204;79;21115;-61
2022/07/02 09:47:39;;;;;;;6.50;0.62;;;;;;;20.91;78.13;100290.19;1777173;80;21077;-62
2022/07/02 09:50:09;;;;;;;1.75;0.57;;;;;;;20.83;77.30;100293.94;1762889;80;20985;-63
2022/07/02 09:52:55;;;;;;;3.60;0.70;;;;;;;20.52;75.70;100300.35;1759216;80;20981;-62
2022/07/02 09:55:28;;;;;;;1.92;0.65;;;;;;;20.51;76.82;100294.70;1766748;80;20946;-63
2022/07/02 09:57:59;;;;;;;2.92;0.60;;;;;;;20.22;71.23;100292.55;1758981;80;21018;-61
2022/07/02 10:00:30;;;;;;;3.35;0.85;;;;;;;20.40;75.45;100301.34;1766525;80;21575;-62
2022/07/02 10:02:59;;;;;;;1.70;0.60;;;;;;;20.22;74.30;100297.86;1761776;80;21419;-62
2022/07/02 10:05:32;;;;;;;2.00;0.80;;;;;;;20.22;73.38;100295.20;1766329;80;21104;-63
2022/07/02 10:08:02;;;;;;;3.72;0.68;;;;;;;20.59;75.99;100302.92;1760322;80;21048;-64
2022/07/02 10:10:36;;;;;;;3.52;0.75;;;;;;;20.72;74.58;100308.08;1757130;80;21013;-63
2022/07/02 10:13:04;;;;;;;2.45;1.07;;;;;;;20.61;74.91;100303.62;1767246;80;21649;-62
2022/07/02 10:15:32;;;;;;;2.22;0.75;;;;;;;20.91;73.24;100307.44;1780962;78;21207;-61
2022/07/02 10:18:01;;;;;;;3.35;0.95;;;;;;;20.82;72.92;100316.16;1750244;80;22271;-63
2022/07/02 10:20:33;;;;;;;3.22;0.78;;;;;;;20.74;73.43;100320.25;1755739;80;21073;-62
2022/07/02 10:23:06;;;;;;;5.97;1.85;;;;;;;20.99;73.66;100319.12;1753116;79;21122;-63
2022/07/02 10:25:35;;;;;;;2.42;0.80;;;;;;;21.45;74.00;100319.82;1749095;81;21123;-63
2022/07/02 10:28:02;;;;;;;2.58;0.88;;;;;;;21.87;72.47;100323.36;1753855;81;21156;-63
2022/07/02 10:30:33;;;;;;;5.20;1.15;;;;;;;22.03;72.63;100325.53;1753246;81;21437;-62
2022/07/02 10:33:44;;;;;;;1.92;0.70;;;;;;;22.12;71.74;100330.09;1748050;80;21135;-63
2022/07/02 10:36:14;;;;;;;2.50;0.70;;;;;;;21.83;70.70;100337.03;1637851;86;21153;-63
2022/07/02 10:38:43;;;;;;;6.00;1.35;;;;;;;21.92;72.13;100344.22;1616738;87;21734;-63
2022/07/02 10:41:10;;;;;;;3.35;1.12;;;;;;;22.38;72.15;100334.99;1634095;85;21313;-63
2022/07/02 10:43:39;;;;;;;2.30;0.70;;;;;;;22.73;70.30;100337.20;1611580;87;21676;-61
2022/07/02 10:46:09;;;;;;;2.87;0.88;;;;;;;22.59;69.33;100343.40;1657205;84;21101;-62
2022/07/02 10:48:49;;;;;;;3.47;1.45;;;;;;;22.71;70.84;100342.30;1660861;84;21782;-62
2022/07/02 10:51:24;;;;;;;4.08;1.00;;;;;;;22.98;70.65;100333.23;1659589;84;21471;-63
2022/07/02 10:54:00;;;;;;;3.62;0.80;;;;;;;23.12;69.60;100327.16;1659064;84;21133;-63
2022/07/02 10:56:29;;;;;;;3.20;1.20;;;;;;;23.18;69.75;100339.42;1664810;84;21776;-63
2022/07/02 10:58:56;;;;;;;3.08;1.25;;;;;;;23.11;68.72;100341.47;1656827;84;21121;-64
2022/07/02 11:01:25;;;;;;;3.95;1.05;;;;;;;23.01;68.73;100331.62;1634704;84;21609;-63
2022/07/02 11:04:00;;;;;;;4.12;1.10;;;;;;;23.34;69.65;100328.22;1668164;84;21242;-62
2022/07/02 11:06:30;;;;;;;2.52;0.80;;;;;;;23.56;69.21;100318.27;1659450;84;21457;-64
2022/07/02 11:09:05;;;;;;;3.85;1.50;;;;;;;23.73;69.12;100320.23;1665285;84;21621;-62
2022/07/02 11:11:40;;;;;;;3.05;0.93;;;;;;;23.92;68.70;100323.83;1675203;82;21216;-61
2022/07/02 11:14:09;;;;;;;3.92;1.07;;;;;;;24.21;68.60;100320.60;1736233;81;20970;-63
2022/07/02 11:16:47;;;;;;;3.12;0.78;;;;;;;24.24;67.90;100325.64;1738379;81;21555;-65
2022/07/02 11:19:24;;;;;;;2.75;1.07;;;;;;;24.38;67.83;100322.16;1739315;82;21306;-63
2022/07/02 11:21:54;;;;;;;;;;;;;;;24.41;66.72;100323.19;1741313;82;21600;-63
2022/07/02 11:24:24;;;;;;;6.47;1.12;;;;;;;24.30;65.22;100331.72;1739039;82;20119;-63
2022/07/02 11:26:52;;;;;;;5.80;0.90;;;;;;;23.50;63.91;100337.47;1738978;82;20997;-63
2022/07/02 11:29:19;;;;;;;4.75;0.88;;;;;;;22.42;59.73;100342.22;1737516;82;21054;-63
2022/07/02 11:31:53;;;;;;;4.08;0.90;;;;;;;21.67;63.30;100342.30;1738005;82;21082;-63
2022/07/02 11:34:22;;;;;;;2.45;0.80;;;;;;;21.50;63.63;100342.03;1737652;81;21010;-60
2022/07/02 11:36:50;;;;;;;4.33;1.02;;;;;;;21.32;63.17;100340.39;1736532;81;21074;-62
2022/07/02 11:39:21;;;;;;;2.50;0.90;;;;;;;21.57;64.42;100353.36;1737360;81;21061;-61
2022/07/02 11:41:49;;;;;;;3.02;0.80;;;;;;;21.43;62.08;100348.34;1738046;81;21041;-62
2022/07/02 11:44:26;;;;;;;6.75;1.40;;;;;;;21.09;60.88;100351.09;1738403;82;21092;-63
2022/07/02 11:46:59;;;;;;;3.40;0.80;;;;;;;21.27;62.98;100343.91;1734911;81;21710;-62
2022/07/02 11:49:30;;;;;;;2.33;0.70;;;;;;;21.60;62.11;100344.29;1733011;82;21994;-62
2022/07/02 11:51:57;;;;;;;4.08;0.80;;;;;;;21.59;61.49;100340.80;1735375;82;21516;-63
2022/07/02 11:54:26;;;;;;;1.42;0.93;;;;;;;21.31;57.53;100344.00;1735329;82;21061;-62
2022/07/02 11:56:54;;;;;;;1.15;0.60;;;;;;;21.31;60.17;100347.49;1733362;81;21224;-63
2022/07/02 11:59:25;;;;;;;2.12;0.50;;;;;;;21.39;58.08;100358.86;1736395;81;21079;-63
2022/07/02 12:01:54;;;;;;;2.15;0.80;;;;;;;21.39;59.53;100350.89;1735786;81;21048;-63